sensor_id;sensor_type;location;lat;lon;timestamp;P1;durP1;ratioP1;P2;durP2;ratioP2
40757;SDS011;26462;47.384;19.218;2024-01-15T00:02:37;49.03;;;18.00;;
40757;SDS011;26462;47.384;19.218;2024-01-15T00:05:05;54.85;;;18.63;;
40757;SDS011;26462;47.384;19.218;2024-01-15T00:07:34;40.28;;;15.38;;
40757;SDS011;26462;47.384;19.218;2024-01-15T00:10:03;48.67;;;17.45;;
40757;SDS011;26462;47.384;19.218;2024-01-15T00:12:32;48.15;;;17.25;;
40757;SDS011;26462;47.384;19.218;2024-01-15T00:15:00;42.63;;;16.00;;
40757;SDS011;26462;47.384;19.218;2024-01-15T00:17:29;38.80;;;15.35;;
40757;SDS011;26462;47.384;19.218;2024-01-15T00:19:59;45.40;;;15.95;;
40757;SDS011;26462;47.384;19.218;2024-01-15T00:22:27;37.80;;;14.35;;
40757;SDS011;26462;47.384;19.218;2024-01-15T00:24:57;40.78;;;15.68;;
40757;SDS011;26462;47.384;19.218;2024-01-15T00:27:25;46.25;;;17.17;;
40757;SDS011;26462;47.384;19.218;2024-01-15T00:29:54;45.72;;;15.23;;
40757;SDS011;26462;47.384;19.218;2024-01-15T00:32:22;38.90;;;14.60;;
40757;SDS011;26462;47.384;19.218;2024-01-15T00:34:51;41.70;;;16.45;;
40757;SDS011;26462;47.384;19.218;2024-01-15T00:37:20;46.05;;;17.35;;
40757;SDS011;26462;47.384;19.218;2024-01-15T00:39:49;41.30;;;17.08;;
40757;SDS011;26462;47.384;19.218;2024-01-15T00:42:18;41.17;;;16.55;;
40757;SDS011;26462;47.384;19.218;2024-01-15T00:44:46;45.45;;;16.73;;
40757;SDS011;26462;47.384;19.218;2024-01-15T00:47:14;44.15;;;17.88;;
40757;SDS011;26462;47.384;19.218;2024-01-15T00:49:43;44.60;;;17.35;;
40757;SDS011;26462;47.384;19.218;2024-01-15T00:52:12;44.90;;;16.20;;
40757;SDS011;26462;47.384;19.218;2024-01-15T00:54:41;51.00;;;19.95;;
40757;SDS011;26462;47.384;19.218;2024-01-15T00:57:10;45.10;;;18.30;;
40757;SDS011;26462;47.384;19.218;2024-01-15T00:59:39;44.72;;;17.45;;
40757;SDS011;26462;47.384;19.218;2024-01-15T01:02:07;44.38;;;17.33;;
40757;SDS011;26462;47.384;19.218;2024-01-15T01:04:35;48.88;;;18.25;;
40757;SDS011;26462;47.384;19.218;2024-01-15T01:07:04;47.92;;;18.77;;
40757;SDS011;26462;47.384;19.218;2024-01-15T01:09:32;38.60;;;15.65;;
40757;SDS011;26462;47.384;19.218;2024-01-15T01:12:02;45.38;;;16.25;;
40757;SDS011;26462;47.384;19.218;2024-01-15T01:14:31;48.97;;;17.98;;
40757;SDS011;26462;47.384;19.218;2024-01-15T01:17:00;45.75;;;17.27;;
40757;SDS011;26462;47.384;19.218;2024-01-15T01:19:28;43.08;;;16.58;;
40757;SDS011;26462;47.384;19.218;2024-01-15T01:21:57;49.13;;;17.23;;
40757;SDS011;26462;47.384;19.218;2024-01-15T01:24:26;48.72;;;18.08;;
40757;SDS011;26462;47.384;19.218;2024-01-15T01:26:54;47.28;;;17.38;;
40757;SDS011;26462;47.384;19.218;2024-01-15T01:29:24;47.58;;;17.60;;
40757;SDS011;26462;47.384;19.218;2024-01-15T01:31:53;46.40;;;17.58;;
40757;SDS011;26462;47.384;19.218;2024-01-15T01:34:23;45.60;;;17.27;;
40757;SDS011;26462;47.384;19.218;2024-01-15T01:36:51;42.00;;;17.08;;
40757;SDS011;26462;47.384;19.218;2024-01-15T01:39:20;48.58;;;17.65;;
40757;SDS011;26462;47.384;19.218;2024-01-15T01:41:48;54.47;;;19.15;;
40757;SDS011;26462;47.384;19.218;2024-01-15T01:44:17;48.97;;;18.40;;
40757;SDS011;26462;47.384;19.218;2024-01-15T01:46:46;49.65;;;17.92;;
40757;SDS011;26462;47.384;19.218;2024-01-15T01:49:15;55.72;;;18.52;;
40757;SDS011;26462;47.384;19.218;2024-01-15T01:51:44;47.35;;;19.50;;
40757;SDS011;26462;47.384;19.218;2024-01-15T01:54:14;48.33;;;18.48;;
40757;SDS011;26462;47.384;19.218;2024-01-15T01:56:42;52.80;;;18.85;;
40757;SDS011;26462;47.384;19.218;2024-01-15T01:59:11;47.17;;;17.00;;
40757;SDS011;26462;47.384;19.218;2024-01-15T02:01:40;50.95;;;19.35;;
40757;SDS011;26462;47.384;19.218;2024-01-15T02:04:10;50.65;;;17.42;;
40757;SDS011;26462;47.384;19.218;2024-01-15T02:06:40;44.15;;;18.00;;
40757;SDS011;26462;47.384;19.218;2024-01-15T02:09:09;49.50;;;20.88;;
40757;SDS011;26462;47.384;19.218;2024-01-15T02:11:41;59.50;;;21.63;;
40757;SDS011;26462;47.384;19.218;2024-01-15T02:14:10;65.72;;;22.77;;
40757;SDS011;26462;47.384;19.218;2024-01-15T02:16:38;55.72;;;20.52;;
40757;SDS011;26462;47.384;19.218;2024-01-15T02:19:06;59.13;;;20.67;;
40757;SDS011;26462;47.384;19.218;2024-01-15T02:21:36;51.15;;;18.77;;
40757;SDS011;26462;47.384;19.218;2024-01-15T02:24:06;45.35;;;17.50;;
40757;SDS011;26462;47.384;19.218;2024-01-15T02:26:35;50.22;;;17.63;;
40757;SDS011;26462;47.384;19.218;2024-01-15T02:29:05;50.67;;;19.10;;
40757;SDS011;26462;47.384;19.218;2024-01-15T02:31:35;49.97;;;19.35;;
40757;SDS011;26462;47.384;19.218;2024-01-15T02:34:04;50.45;;;17.35;;
40757;SDS011;26462;47.384;19.218;2024-01-15T02:36:33;50.88;;;18.40;;
40757;SDS011;26462;47.384;19.218;2024-01-15T02:39:01;57.22;;;19.45;;
40757;SDS011;26462;47.384;19.218;2024-01-15T02:41:31;60.72;;;20.05;;
40757;SDS011;26462;47.384;19.218;2024-01-15T02:44:00;60.78;;;21.25;;
40757;SDS011;26462;47.384;19.218;2024-01-15T02:46:28;52.90;;;21.08;;
40757;SDS011;26462;47.384;19.218;2024-01-15T02:48:56;55.08;;;20.63;;
40757;SDS011;26462;47.384;19.218;2024-01-15T02:51:25;50.47;;;19.45;;
40757;SDS011;26462;47.384;19.218;2024-01-15T02:53:53;50.63;;;18.73;;
40757;SDS011;26462;47.384;19.218;2024-01-15T02:56:22;50.67;;;18.40;;
40757;SDS011;26462;47.384;19.218;2024-01-15T02:58:51;55.55;;;21.00;;
40757;SDS011;26462;47.384;19.218;2024-01-15T03:01:20;51.20;;;18.60;;
40757;SDS011;26462;47.384;19.218;2024-01-15T03:03:49;59.80;;;23.15;;
40757;SDS011;26462;47.384;19.218;2024-01-15T03:06:17;64.03;;;23.52;;
40757;SDS011;26462;47.384;19.218;2024-01-15T03:08:46;65.00;;;25.13;;
40757;SDS011;26462;47.384;19.218;2024-01-15T03:11:14;66.32;;;24.42;;
40757;SDS011;26462;47.384;19.218;2024-01-15T03:13:43;59.78;;;21.75;;
40757;SDS011;26462;47.384;19.218;2024-01-15T03:16:12;68.43;;;22.52;;
40757;SDS011;26462;47.384;19.218;2024-01-15T03:18:41;69.20;;;23.65;;
40757;SDS011;26462;47.384;19.218;2024-01-15T03:21:09;66.57;;;23.23;;
40757;SDS011;26462;47.384;19.218;2024-01-15T03:23:38;57.47;;;20.02;;
40757;SDS011;26462;47.384;19.218;2024-01-15T03:26:06;59.03;;;21.42;;
40757;SDS011;26462;47.384;19.218;2024-01-15T03:28:33;61.47;;;23.45;;
40757;SDS011;26462;47.384;19.218;2024-01-15T03:31:02;64.15;;;22.80;;
40757;SDS011;26462;47.384;19.218;2024-01-15T03:33:32;64.47;;;24.80;;
40757;SDS011;26462;47.384;19.218;2024-01-15T03:36:01;58.60;;;19.75;;
40757;SDS011;26462;47.384;19.218;2024-01-15T03:38:29;65.50;;;21.52;;
40757;SDS011;26462;47.384;19.218;2024-01-15T03:40:58;64.03;;;22.77;;
40757;SDS011;26462;47.384;19.218;2024-01-15T03:43:27;60.15;;;21.30;;
40757;SDS011;26462;47.384;19.218;2024-01-15T03:45:55;59.45;;;20.98;;
40757;SDS011;26462;47.384;19.218;2024-01-15T03:48:23;61.17;;;22.45;;
40757;SDS011;26462;47.384;19.218;2024-01-15T03:50:54;63.08;;;22.45;;
40757;SDS011;26462;47.384;19.218;2024-01-15T03:53:22;65.47;;;22.75;;
40757;SDS011;26462;47.384;19.218;2024-01-15T03:55:51;57.92;;;22.08;;
40757;SDS011;26462;47.384;19.218;2024-01-15T03:58:19;65.13;;;24.92;;
40757;SDS011;26462;47.384;19.218;2024-01-15T04:00:47;60.20;;;20.33;;
40757;SDS011;26462;47.384;19.218;2024-01-15T04:03:16;69.50;;;24.02;;
40757;SDS011;26462;47.384;19.218;2024-01-15T04:05:44;67.05;;;23.10;;
40757;SDS011;26462;47.384;19.218;2024-01-15T04:08:14;64.75;;;23.48;;
40757;SDS011;26462;47.384;19.218;2024-01-15T04:10:43;64.35;;;23.00;;
40757;SDS011;26462;47.384;19.218;2024-01-15T04:13:11;65.72;;;23.63;;
40757;SDS011;26462;47.384;19.218;2024-01-15T04:15:40;75.68;;;29.15;;
40757;SDS011;26462;47.384;19.218;2024-01-15T04:18:08;71.28;;;26.67;;
40757;SDS011;26462;47.384;19.218;2024-01-15T04:20:37;75.57;;;29.00;;
40757;SDS011;26462;47.384;19.218;2024-01-15T04:23:05;82.25;;;28.83;;
40757;SDS011;26462;47.384;19.218;2024-01-15T04:25:35;70.22;;;24.63;;
40757;SDS011;26462;47.384;19.218;2024-01-15T04:28:04;79.25;;;26.45;;
40757;SDS011;26462;47.384;19.218;2024-01-15T04:30:33;66.65;;;24.42;;
40757;SDS011;26462;47.384;19.218;2024-01-15T04:33:01;82.65;;;26.98;;
40757;SDS011;26462;47.384;19.218;2024-01-15T04:35:30;70.60;;;24.73;;
40757;SDS011;26462;47.384;19.218;2024-01-15T04:37:58;71.47;;;24.30;;
40757;SDS011;26462;47.384;19.218;2024-01-15T04:40:27;69.25;;;24.55;;
40757;SDS011;26462;47.384;19.218;2024-01-15T04:42:56;70.22;;;23.80;;
40757;SDS011;26462;47.384;19.218;2024-01-15T04:45:25;67.00;;;23.55;;
40757;SDS011;26462;47.384;19.218;2024-01-15T04:47:55;71.88;;;23.65;;
40757;SDS011;26462;47.384;19.218;2024-01-15T04:50:24;76.45;;;26.15;;
40757;SDS011;26462;47.384;19.218;2024-01-15T04:52:53;71.10;;;24.50;;
40757;SDS011;26462;47.384;19.218;2024-01-15T04:55:21;67.40;;;24.50;;
40757;SDS011;26462;47.384;19.218;2024-01-15T04:57:49;73.30;;;27.13;;
40757;SDS011;26462;47.384;19.218;2024-01-15T05:00:19;78.32;;;26.63;;
40757;SDS011;26462;47.384;19.218;2024-01-15T05:02:48;72.10;;;26.33;;
40757;SDS011;26462;47.384;19.218;2024-01-15T05:05:16;70.43;;;24.13;;
40757;SDS011;26462;47.384;19.218;2024-01-15T05:07:45;70.50;;;23.50;;
40757;SDS011;26462;47.384;19.218;2024-01-15T05:10:13;71.43;;;26.38;;
40757;SDS011;26462;47.384;19.218;2024-01-15T05:12:42;59.60;;;24.30;;
40757;SDS011;26462;47.384;19.218;2024-01-15T05:15:10;81.15;;;28.35;;
40757;SDS011;26462;47.384;19.218;2024-01-15T05:17:40;67.57;;;26.10;;
40757;SDS011;26462;47.384;19.218;2024-01-15T05:20:09;75.10;;;25.95;;
40757;SDS011;26462;47.384;19.218;2024-01-15T05:22:38;63.00;;;23.35;;
40757;SDS011;26462;47.384;19.218;2024-01-15T05:25:07;67.50;;;25.20;;
40757;SDS011;26462;47.384;19.218;2024-01-15T05:27:35;78.65;;;27.88;;
40757;SDS011;26462;47.384;19.218;2024-01-15T05:30:04;84.38;;;29.75;;
40757;SDS011;26462;47.384;19.218;2024-01-15T05:32:33;62.90;;;24.98;;
40757;SDS011;26462;47.384;19.218;2024-01-15T05:35:04;72.88;;;25.20;;
40757;SDS011;26462;47.384;19.218;2024-01-15T05:37:32;80.40;;;29.92;;
40757;SDS011;26462;47.384;19.218;2024-01-15T05:40:01;78.07;;;28.30;;
40757;SDS011;26462;47.384;19.218;2024-01-15T05:42:31;80.57;;;27.70;;
40757;SDS011;26462;47.384;19.218;2024-01-15T05:45:00;85.70;;;30.75;;
40757;SDS011;26462;47.384;19.218;2024-01-15T05:47:31;81.07;;;30.05;;
40757;SDS011;26462;47.384;19.218;2024-01-15T05:50:00;93.90;;;33.85;;
40757;SDS011;26462;47.384;19.218;2024-01-15T05:52:30;79.28;;;29.95;;
40757;SDS011;26462;47.384;19.218;2024-01-15T05:54:59;90.93;;;31.30;;
40757;SDS011;26462;47.384;19.218;2024-01-15T05:57:28;88.75;;;30.63;;
40757;SDS011;26462;47.384;19.218;2024-01-15T05:59:57;83.15;;;27.58;;
40757;SDS011;26462;47.384;19.218;2024-01-15T06:02:26;83.20;;;31.92;;
40757;SDS011;26462;47.384;19.218;2024-01-15T06:04:55;138.93;;;46.50;;
40757;SDS011;26462;47.384;19.218;2024-01-15T06:07:24;127.35;;;42.13;;
40757;SDS011;26462;47.384;19.218;2024-01-15T06:09:54;128.48;;;44.58;;
40757;SDS011;26462;47.384;19.218;2024-01-15T06:12:24;115.60;;;37.95;;
40757;SDS011;26462;47.384;19.218;2024-01-15T06:14:54;119.43;;;40.50;;
40757;SDS011;26462;47.384;19.218;2024-01-15T06:17:23;127.40;;;43.03;;
40757;SDS011;26462;47.384;19.218;2024-01-15T06:19:52;99.82;;;35.78;;
40757;SDS011;26462;47.384;19.218;2024-01-15T06:22:21;93.28;;;33.08;;
40757;SDS011;26462;47.384;19.218;2024-01-15T06:24:50;100.05;;;36.85;;
40757;SDS011;26462;47.384;19.218;2024-01-15T06:27:21;103.38;;;35.38;;
40757;SDS011;26462;47.384;19.218;2024-01-15T06:29:50;109.75;;;35.22;;
40757;SDS011;26462;47.384;19.218;2024-01-15T06:32:19;99.05;;;34.90;;
40757;SDS011;26462;47.384;19.218;2024-01-15T06:34:47;100.25;;;35.08;;
40757;SDS011;26462;47.384;19.218;2024-01-15T06:37:16;92.35;;;33.05;;
40757;SDS011;26462;47.384;19.218;2024-01-15T06:39:47;92.10;;;32.67;;
40757;SDS011;26462;47.384;19.218;2024-01-15T06:42:16;81.55;;;30.52;;
40757;SDS011;26462;47.384;19.218;2024-01-15T06:44:46;89.85;;;32.00;;
40757;SDS011;26462;47.384;19.218;2024-01-15T06:47:15;85.97;;;30.23;;
40757;SDS011;26462;47.384;19.218;2024-01-15T06:49:44;78.93;;;26.98;;
40757;SDS011;26462;47.384;19.218;2024-01-15T06:52:13;83.78;;;27.30;;
40757;SDS011;26462;47.384;19.218;2024-01-15T06:54:42;71.93;;;25.73;;
40757;SDS011;26462;47.384;19.218;2024-01-15T06:57:12;70.43;;;24.08;;
40757;SDS011;26462;47.384;19.218;2024-01-15T06:59:41;80.75;;;29.38;;
40757;SDS011;26462;47.384;19.218;2024-01-15T07:02:14;56.22;;;23.90;;
40757;SDS011;26462;47.384;19.218;2024-01-15T07:04:43;72.18;;;28.23;;
40757;SDS011;26462;47.384;19.218;2024-01-15T07:07:11;59.53;;;24.10;;
40757;SDS011;26462;47.384;19.218;2024-01-15T07:09:40;69.45;;;24.23;;
40757;SDS011;26462;47.384;19.218;2024-01-15T07:12:09;67.07;;;24.88;;
40757;SDS011;26462;47.384;19.218;2024-01-15T07:14:37;67.93;;;25.90;;
40757;SDS011;26462;47.384;19.218;2024-01-15T07:17:05;63.70;;;25.05;;
40757;SDS011;26462;47.384;19.218;2024-01-15T07:19:35;66.03;;;22.67;;
40757;SDS011;26462;47.384;19.218;2024-01-15T07:22:04;78.60;;;24.00;;
40757;SDS011;26462;47.384;19.218;2024-01-15T07:24:32;79.90;;;28.05;;
40757;SDS011;26462;47.384;19.218;2024-01-15T07:27:01;74.47;;;26.77;;
40757;SDS011;26462;47.384;19.218;2024-01-15T07:29:31;76.05;;;26.80;;
40757;SDS011;26462;47.384;19.218;2024-01-15T07:32:02;67.60;;;25.42;;
40757;SDS011;26462;47.384;19.218;2024-01-15T07:34:35;67.65;;;25.08;;
40757;SDS011;26462;47.384;19.218;2024-01-15T07:37:04;63.72;;;24.85;;
40757;SDS011;26462;47.384;19.218;2024-01-15T07:39:33;41.58;;;18.98;;
40757;SDS011;26462;47.384;19.218;2024-01-15T07:42:01;77.95;;;28.75;;
40757;SDS011;26462;47.384;19.218;2024-01-15T07:44:30;69.53;;;24.83;;
40757;SDS011;26462;47.384;19.218;2024-01-15T07:46:58;68.53;;;24.40;;
40757;SDS011;26462;47.384;19.218;2024-01-15T07:49:27;67.88;;;22.92;;
40757;SDS011;26462;47.384;19.218;2024-01-15T07:51:57;74.47;;;23.90;;
40757;SDS011;26462;47.384;19.218;2024-01-15T07:54:25;65.70;;;24.95;;
40757;SDS011;26462;47.384;19.218;2024-01-15T07:56:54;135.45;;;43.58;;
40757;SDS011;26462;47.384;19.218;2024-01-15T07:59:23;148.77;;;48.70;;
40757;SDS011;26462;47.384;19.218;2024-01-15T08:01:52;144.32;;;47.30;;
40757;SDS011;26462;47.384;19.218;2024-01-15T08:04:21;118.47;;;40.03;;
40757;SDS011;26462;47.384;19.218;2024-01-15T08:06:50;79.18;;;29.65;;
40757;SDS011;26462;47.384;19.218;2024-01-15T08:09:20;92.90;;;31.58;;
40757;SDS011;26462;47.384;19.218;2024-01-15T08:11:48;97.53;;;35.03;;
40757;SDS011;26462;47.384;19.218;2024-01-15T08:14:17;71.20;;;26.88;;
40757;SDS011;26462;47.384;19.218;2024-01-15T08:16:46;70.18;;;26.00;;
40757;SDS011;26462;47.384;19.218;2024-01-15T08:19:14;65.90;;;25.58;;
40757;SDS011;26462;47.384;19.218;2024-01-15T08:21:43;78.75;;;29.33;;
40757;SDS011;26462;47.384;19.218;2024-01-15T08:24:14;71.65;;;26.98;;
40757;SDS011;26462;47.384;19.218;2024-01-15T08:29:44;75.30;;;26.73;;
40757;SDS011;26462;47.384;19.218;2024-01-15T08:32:13;78.10;;;27.10;;
40757;SDS011;26462;47.384;19.218;2024-01-15T08:34:43;82.28;;;26.38;;
40757;SDS011;26462;47.384;19.218;2024-01-15T08:37:15;70.07;;;25.58;;
40757;SDS011;26462;47.384;19.218;2024-01-15T08:39:44;106.35;;;40.08;;
40757;SDS011;26462;47.384;19.218;2024-01-15T08:42:16;106.85;;;37.75;;
40757;SDS011;26462;47.384;19.218;2024-01-15T08:44:46;100.82;;;35.58;;
40757;SDS011;26462;47.384;19.218;2024-01-15T08:47:15;83.82;;;28.48;;
40757;SDS011;26462;47.384;19.218;2024-01-15T08:49:43;86.80;;;30.13;;
40757;SDS011;26462;47.384;19.218;2024-01-15T08:52:13;90.47;;;31.38;;
40757;SDS011;26462;47.384;19.218;2024-01-15T08:54:43;96.75;;;33.60;;
40757;SDS011;26462;47.384;19.218;2024-01-15T08:57:11;87.82;;;28.40;;
40757;SDS011;26462;47.384;19.218;2024-01-15T08:59:40;71.88;;;26.27;;
40757;SDS011;26462;47.384;19.218;2024-01-15T09:02:10;67.88;;;24.35;;
40757;SDS011;26462;47.384;19.218;2024-01-15T09:04:41;96.40;;;35.33;;
40757;SDS011;26462;47.384;19.218;2024-01-15T09:07:10;95.32;;;33.05;;
40757;SDS011;26462;47.384;19.218;2024-01-15T09:09:38;97.93;;;35.78;;
40757;SDS011;26462;47.384;19.218;2024-01-15T09:12:08;80.60;;;30.00;;
40757;SDS011;26462;47.384;19.218;2024-01-15T09:14:37;80.07;;;29.33;;
40757;SDS011;26462;47.384;19.218;2024-01-15T09:17:07;88.97;;;32.72;;
40757;SDS011;26462;47.384;19.218;2024-01-15T09:19:38;86.10;;;32.22;;
40757;SDS011;26462;47.384;19.218;2024-01-15T09:22:07;76.95;;;31.35;;
40757;SDS011;26462;47.384;19.218;2024-01-15T09:24:36;66.07;;;25.98;;
40757;SDS011;26462;47.384;19.218;2024-01-15T09:27:08;65.65;;;25.70;;
40757;SDS011;26462;47.384;19.218;2024-01-15T09:29:37;82.93;;;32.75;;
40757;SDS011;26462;47.384;19.218;2024-01-15T09:32:08;69.90;;;29.52;;
40757;SDS011;26462;47.384;19.218;2024-01-15T09:34:38;64.18;;;26.65;;
40757;SDS011;26462;47.384;19.218;2024-01-15T09:37:08;58.58;;;20.65;;
40757;SDS011;26462;47.384;19.218;2024-01-15T09:39:49;57.15;;;22.00;;
40757;SDS011;26462;47.384;19.218;2024-01-15T09:42:18;53.35;;;20.35;;
40757;SDS011;26462;47.384;19.218;2024-01-15T09:44:48;54.65;;;21.08;;
40757;SDS011;26462;47.384;19.218;2024-01-15T09:47:17;58.72;;;19.92;;
40757;SDS011;26462;47.384;19.218;2024-01-15T09:49:49;59.08;;;22.67;;
40757;SDS011;26462;47.384;19.218;2024-01-15T09:52:18;79.65;;;28.80;;
40757;SDS011;26462;47.384;19.218;2024-01-15T09:54:48;57.15;;;22.02;;
40757;SDS011;26462;47.384;19.218;2024-01-15T09:57:17;52.20;;;21.63;;
40757;SDS011;26462;47.384;19.218;2024-01-15T09:59:46;54.33;;;20.80;;
40757;SDS011;26462;47.384;19.218;2024-01-15T10:02:17;60.17;;;25.40;;
40757;SDS011;26462;47.384;19.218;2024-01-15T10:04:50;36.30;;;15.32;;
40757;SDS011;26462;47.384;19.218;2024-01-15T10:07:19;30.98;;;11.77;;
40757;SDS011;26462;47.384;19.218;2024-01-15T10:09:49;35.75;;;16.33;;
40757;SDS011;26462;47.384;19.218;2024-01-15T10:12:18;36.40;;;14.57;;
40757;SDS011;26462;47.384;19.218;2024-01-15T10:14:48;31.45;;;14.82;;
40757;SDS011;26462;47.384;19.218;2024-01-15T10:17:19;34.03;;;15.00;;
40757;SDS011;26462;47.384;19.218;2024-01-15T10:19:47;38.65;;;17.85;;
40757;SDS011;26462;47.384;19.218;2024-01-15T10:22:18;34.35;;;12.63;;
40757;SDS011;26462;47.384;19.218;2024-01-15T10:24:47;27.10;;;12.05;;
40757;SDS011;26462;47.384;19.218;2024-01-15T10:27:16;35.10;;;13.90;;
40757;SDS011;26462;47.384;19.218;2024-01-15T10:29:46;33.83;;;11.20;;
40757;SDS011;26462;47.384;19.218;2024-01-15T10:32:15;39.28;;;16.85;;
40757;SDS011;26462;47.384;19.218;2024-01-15T10:34:44;20.85;;;8.30;;
40757;SDS011;26462;47.384;19.218;2024-01-15T10:37:15;18.80;;;7.63;;
40757;SDS011;26462;47.384;19.218;2024-01-15T10:39:44;26.30;;;10.15;;
40757;SDS011;26462;47.384;19.218;2024-01-15T10:42:15;22.05;;;10.13;;
40757;SDS011;26462;47.384;19.218;2024-01-15T10:44:45;18.15;;;6.30;;
40757;SDS011;26462;47.384;19.218;2024-01-15T10:47:14;31.33;;;11.23;;
40757;SDS011;26462;47.384;19.218;2024-01-15T10:49:43;17.98;;;7.20;;
40757;SDS011;26462;47.384;19.218;2024-01-15T10:52:14;15.90;;;5.80;;
40757;SDS011;26462;47.384;19.218;2024-01-15T10:54:46;14.15;;;5.47;;
40757;SDS011;26462;47.384;19.218;2024-01-15T10:57:16;11.90;;;5.43;;
40757;SDS011;26462;47.384;19.218;2024-01-15T10:59:46;17.13;;;6.75;;
40757;SDS011;26462;47.384;19.218;2024-01-15T11:02:15;11.95;;;6.00;;
40757;SDS011;26462;47.384;19.218;2024-01-15T11:04:45;19.05;;;7.93;;
40757;SDS011;26462;47.384;19.218;2024-01-15T11:07:15;18.70;;;6.88;;
40757;SDS011;26462;47.384;19.218;2024-01-15T11:09:45;11.27;;;4.70;;
40757;SDS011;26462;47.384;19.218;2024-01-15T11:12:15;17.35;;;5.70;;
40757;SDS011;26462;47.384;19.218;2024-01-15T11:14:46;22.00;;;7.35;;
40757;SDS011;26462;47.384;19.218;2024-01-15T11:17:17;17.10;;;6.78;;
40757;SDS011;26462;47.384;19.218;2024-01-15T11:19:46;17.25;;;6.88;;
40757;SDS011;26462;47.384;19.218;2024-01-15T11:25:20;11.18;;;5.13;;
40757;SDS011;26462;47.384;19.218;2024-01-15T11:27:54;15.25;;;5.35;;
40757;SDS011;26462;47.384;19.218;2024-01-15T11:30:24;11.23;;;3.80;;
40757;SDS011;26462;47.384;19.218;2024-01-15T11:32:54;13.07;;;5.68;;
40757;SDS011;26462;47.384;19.218;2024-01-15T11:35:24;9.98;;;4.88;;
40757;SDS011;26462;47.384;19.218;2024-01-15T11:38:27;9.23;;;4.25;;
40757;SDS011;26462;47.384;19.218;2024-01-15T11:40:57;11.75;;;3.70;;
40757;SDS011;26462;47.384;19.218;2024-01-15T11:43:30;12.52;;;4.68;;
40757;SDS011;26462;47.384;19.218;2024-01-15T11:46:00;11.13;;;3.88;;
40757;SDS011;26462;47.384;19.218;2024-01-15T11:48:33;9.10;;;4.03;;
40757;SDS011;26462;47.384;19.218;2024-01-15T11:51:11;9.10;;;3.03;;
40757;SDS011;26462;47.384;19.218;2024-01-15T11:53:43;9.38;;;3.60;;
40757;SDS011;26462;47.384;19.218;2024-01-15T11:56:15;10.48;;;3.75;;
40757;SDS011;26462;47.384;19.218;2024-01-15T11:58:44;8.13;;;3.83;;
40757;SDS011;26462;47.384;19.218;2024-01-15T12:01:14;7.32;;;3.00;;
40757;SDS011;26462;47.384;19.218;2024-01-15T12:03:44;8.90;;;4.07;;
40757;SDS011;26462;47.384;19.218;2024-01-15T12:06:15;9.35;;;3.85;;
40757;SDS011;26462;47.384;19.218;2024-01-15T12:08:45;14.55;;;4.25;;
40757;SDS011;26462;47.384;19.218;2024-01-15T12:11:14;13.80;;;4.57;;
40757;SDS011;26462;47.384;19.218;2024-01-15T12:13:46;8.13;;;2.97;;
40757;SDS011;26462;47.384;19.218;2024-01-15T12:16:16;12.38;;;4.30;;
40757;SDS011;26462;47.384;19.218;2024-01-15T12:18:44;10.15;;;4.53;;
40757;SDS011;26462;47.384;19.218;2024-01-15T12:21:13;12.10;;;4.63;;
40757;SDS011;26462;47.384;19.218;2024-01-15T12:23:42;16.27;;;7.25;;
40757;SDS011;26462;47.384;19.218;2024-01-15T12:26:17;14.60;;;6.88;;
40757;SDS011;26462;47.384;19.218;2024-01-15T12:28:46;11.30;;;5.03;;
40757;SDS011;26462;47.384;19.218;2024-01-15T12:31:14;15.27;;;5.55;;
40757;SDS011;26462;47.384;19.218;2024-01-15T12:33:43;11.68;;;4.93;;
40757;SDS011;26462;47.384;19.218;2024-01-15T12:36:13;11.68;;;4.28;;
40757;SDS011;26462;47.384;19.218;2024-01-15T12:38:41;10.70;;;4.80;;
40757;SDS011;26462;47.384;19.218;2024-01-15T12:41:12;9.30;;;3.80;;
40757;SDS011;26462;47.384;19.218;2024-01-15T12:43:42;8.32;;;3.13;;
40757;SDS011;26462;47.384;19.218;2024-01-15T12:46:10;13.57;;;5.80;;
40757;SDS011;26462;47.384;19.218;2024-01-15T12:48:42;12.05;;;4.82;;
40757;SDS011;26462;47.384;19.218;2024-01-15T12:51:11;10.45;;;4.47;;
40757;SDS011;26462;47.384;19.218;2024-01-15T12:53:39;15.25;;;4.53;;
40757;SDS011;26462;47.384;19.218;2024-01-15T12:56:08;10.27;;;4.22;;
40757;SDS011;26462;47.384;19.218;2024-01-15T12:58:36;17.38;;;6.10;;
40757;SDS011;26462;47.384;19.218;2024-01-15T13:01:06;9.80;;;4.10;;
40757;SDS011;26462;47.384;19.218;2024-01-15T13:03:38;12.50;;;4.93;;
40757;SDS011;26462;47.384;19.218;2024-01-15T13:06:08;6.78;;;3.22;;
40757;SDS011;26462;47.384;19.218;2024-01-15T13:08:38;8.77;;;4.50;;
40757;SDS011;26462;47.384;19.218;2024-01-15T13:11:06;9.30;;;3.20;;
40757;SDS011;26462;47.384;19.218;2024-01-15T13:13:36;6.57;;;2.53;;
40757;SDS011;26462;47.384;19.218;2024-01-15T13:16:07;6.07;;;2.58;;
40757;SDS011;26462;47.384;19.218;2024-01-15T13:18:36;5.05;;;1.77;;
40757;SDS011;26462;47.384;19.218;2024-01-15T13:21:05;7.35;;;2.92;;
40757;SDS011;26462;47.384;19.218;2024-01-15T13:23:36;6.85;;;2.35;;
40757;SDS011;26462;47.384;19.218;2024-01-15T13:26:06;3.28;;;1.48;;
40757;SDS011;26462;47.384;19.218;2024-01-15T13:28:40;6.65;;;1.77;;
40757;SDS011;26462;47.384;19.218;2024-01-15T13:31:12;3.28;;;1.85;;
40757;SDS011;26462;47.384;19.218;2024-01-15T13:33:43;4.03;;;2.08;;
40757;SDS011;26462;47.384;19.218;2024-01-15T13:36:14;5.05;;;2.10;;
40757;SDS011;26462;47.384;19.218;2024-01-15T13:38:43;4.57;;;1.95;;
40757;SDS011;26462;47.384;19.218;2024-01-15T13:41:11;6.93;;;2.58;;
40757;SDS011;26462;47.384;19.218;2024-01-15T13:43:40;4.50;;;2.28;;
40757;SDS011;26462;47.384;19.218;2024-01-15T13:46:09;9.25;;;2.92;;
40757;SDS011;26462;47.384;19.218;2024-01-15T13:48:39;7.40;;;3.78;;
40757;SDS011;26462;47.384;19.218;2024-01-15T13:51:08;7.00;;;2.58;;
40757;SDS011;26462;47.384;19.218;2024-01-15T13:53:38;7.30;;;2.88;;
40757;SDS011;26462;47.384;19.218;2024-01-15T13:56:07;7.50;;;2.40;;
40757;SDS011;26462;47.384;19.218;2024-01-15T13:58:36;9.57;;;3.75;;
40757;SDS011;26462;47.384;19.218;2024-01-15T14:01:06;13.90;;;5.40;;
40757;SDS011;26462;47.384;19.218;2024-01-15T14:03:34;12.40;;;5.90;;
40757;SDS011;26462;47.384;19.218;2024-01-15T14:06:05;9.82;;;4.68;;
40757;SDS011;26462;47.384;19.218;2024-01-15T14:08:35;14.45;;;6.00;;
40757;SDS011;26462;47.384;19.218;2024-01-15T14:11:04;10.02;;;3.55;;
40757;SDS011;26462;47.384;19.218;2024-01-15T14:13:35;12.07;;;5.18;;
40757;SDS011;26462;47.384;19.218;2024-01-15T14:16:09;11.77;;;5.00;;
40757;SDS011;26462;47.384;19.218;2024-01-15T14:18:38;12.02;;;4.47;;
40757;SDS011;26462;47.384;19.218;2024-01-15T14:21:08;21.08;;;9.70;;
40757;SDS011;26462;47.384;19.218;2024-01-15T14:23:37;19.83;;;8.65;;
40757;SDS011;26462;47.384;19.218;2024-01-15T14:26:05;32.13;;;15.55;;
40757;SDS011;26462;47.384;19.218;2024-01-15T14:28:34;14.25;;;6.15;;
40757;SDS011;26462;47.384;19.218;2024-01-15T14:31:03;9.43;;;4.95;;
40757;SDS011;26462;47.384;19.218;2024-01-15T14:33:32;12.65;;;6.85;;